Honeoye Falls, New York
Current Conditions -  °F | °C
As of 5:54 PM on Wednesday 22 Oct 2014 (Local Time) from KROC Reporting Station
Overcast Overcast  
Wind Chill: 50°   Ceiling: 2600
Heat Index: 50°   Visibility: 10mi
Dew Point: 41°   Wind: 8mph
Humidity: 71%   Direction: 350°N
Pressure: 30.19"   Gusts: NA
Location:  42.95°N, 77.59°W
Report Text: KROC 222154Z 35007KT 10SM BKN026 OVC035 10/05 A3019 RMK AO2 SLP229 T01000050
Loading
Personal Weather Stations






























Interactive Weather Map
Tropical Storm Tracking
New forecast layout! Learn more

10-Day Weather Forecast

Advertisements
Track Severe Weather on mobile